createdAt,value
2016-11-13T00:00:42.298Z,64.77
2016-11-13T00:01:56.468Z,65.15
2016-11-13T00:03:11.491Z,64.96
2016-11-13T00:04:25.440Z,64.87
2016-11-13T00:05:41.182Z,65.25
2016-11-13T00:06:55.489Z,65.63
2016-11-13T00:08:12.796Z,65.34
2016-11-13T00:09:28.195Z,64.96
2016-11-13T00:10:42.621Z,65.63
2016-11-13T00:11:56.903Z,65.34
2016-11-13T00:13:11.496Z,65.63
2016-11-13T00:14:25.764Z,65.34
2016-11-13T00:15:39.440Z,65.72
2016-11-13T00:16:54.214Z,65.34
2016-11-13T00:18:08.272Z,65.72
2016-11-13T00:19:22.450Z,65.34
2016-11-13T00:20:36.588Z,65.72
2016-11-13T00:21:50.154Z,65.63
2016-11-13T00:23:03.915Z,65.34
2016-11-13T00:24:17.772Z,65.34
2016-11-13T00:25:31.540Z,65.63
2016-11-13T00:26:45.077Z,65.25
2016-11-13T00:27:58.559Z,65.72
2016-11-13T00:29:12.483Z,65.53
2016-11-13T00:30:26.275Z,65.06
2016-11-13T00:31:40.252Z,65.53
2016-11-13T00:32:55.207Z,64.96
2016-11-13T00:34:09.622Z,65.34
2016-11-13T00:35:23.511Z,64.87
2016-11-13T00:36:37.235Z,64.87
2016-11-13T00:37:51.421Z,64.58
2016-11-13T00:39:05.641Z,64.96
2016-11-13T00:40:19.791Z,65.63
2016-11-13T00:41:33.649Z,65.25
2016-11-13T00:43:02.541Z,65.53
2016-11-13T00:44:32.284Z,65.06
2016-11-13T00:45:46.041Z,65.63
2016-11-13T00:46:59.592Z,65.53
2016-11-13T00:48:13.360Z,65.25
2016-11-13T00:49:27.600Z,65.44
2016-11-13T00:50:42.427Z,65.72
2016-11-13T00:51:56.622Z,65.53
2016-11-13T00:53:11.318Z,65.34
2016-11-13T00:54:25.730Z,65.63
2016-11-13T00:55:40.170Z,65.06
2016-11-13T00:56:54.231Z,65.59
2016-11-13T00:58:08.909Z,65.59
2016-11-13T00:59:23.732Z,65.44
2016-11-13T01:00:37.728Z,65.34
2016-11-13T01:02:06.455Z,65.63
2016-11-13T01:03:20.716Z,65.91
2016-11-13T01:04:34.755Z,65.81
2016-11-13T01:05:48.719Z,66.09
2016-11-13T01:07:02.922Z,65.97
2016-11-13T01:08:16.598Z,66.16
2016-11-13T01:09:30.812Z,66.44
2016-11-13T01:10:45.047Z,66.73
2016-11-13T01:11:58.560Z,66.73
2016-11-13T01:13:12.752Z,66.53
2016-11-13T01:14:26.720Z,66.63
2016-11-13T01:15:41.102Z,66.63
2016-11-13T01:16:54.765Z,66.73
2016-11-13T01:18:08.667Z,66.82
2016-11-13T01:19:22.940Z,66.82
2016-11-13T01:20:36.747Z,66.63
2016-11-13T01:21:50.931Z,67.2
2016-11-13T01:23:04.819Z,67.58
2016-11-13T01:24:19.085Z,67.39
2016-11-13T01:25:35.404Z,67.86
2016-11-13T01:26:49.415Z,68.05
2016-11-13T01:28:03.034Z,67.86
2016-11-13T01:29:17.192Z,68.05
2016-11-13T01:30:30.877Z,68.15
2016-11-13T01:31:44.789Z,67.77
2016-11-13T01:32:58.617Z,68.15
2016-11-13T01:34:12.582Z,67.86
2016-11-13T01:35:26.827Z,68.15
2016-11-13T01:36:40.653Z,68.24
2016-11-13T01:37:54.302Z,68.05
2016-11-13T01:39:08.396Z,68.15
2016-11-13T01:40:22.006Z,67.77
2016-11-13T01:41:35.845Z,67.86
2016-11-13T01:42:49.819Z,68.05
2016-11-13T01:44:03.697Z,68.71
2016-11-13T01:45:17.170Z,68.81
2016-11-13T01:46:31.048Z,68.52
2016-11-13T01:47:45.327Z,68.71
2016-11-13T01:48:59.195Z,68.33
2016-11-13T01:53:16.608Z,68.05
2016-11-13T01:54:30.439Z,68.15
2016-11-13T01:55:44.324Z,67.77
2016-11-13T01:56:58.088Z,67.96
2016-11-13T01:58:12.122Z,67.86
2016-11-13T01:59:26.235Z,67.49
2016-11-13T02:00:40.201Z,67.49
2016-11-13T02:01:54.592Z,67.49
2016-11-13T02:03:11.020Z,67.49
2016-11-13T02:04:25.153Z,67.58
2016-11-13T02:05:38.980Z,67.68
2016-11-13T02:06:53.050Z,67.71
2016-11-13T02:08:06.987Z,67.52
2016-11-13T02:09:21.069Z,67.24
2016-11-13T02:10:35.123Z,67.2
2016-11-13T02:11:49.017Z,67.52
2016-11-13T02:13:02.746Z,67.58
2016-11-13T02:14:16.961Z,67.39
2016-11-13T02:15:30.882Z,67.58
2016-11-13T02:16:44.667Z,67.71
2016-11-13T02:17:59.211Z,67.61
2016-11-13T02:19:13.049Z,67.52
2016-11-13T02:20:27.134Z,67.24
2016-11-13T02:21:40.969Z,67.2
2016-11-13T02:22:55.483Z,67.24
2016-11-13T02:24:09.215Z,67.71
2016-11-13T02:25:23.224Z,67.33
2016-11-13T02:26:37.376Z,67.24
2016-11-13T02:27:53.298Z,67.14
2016-11-13T02:29:24.302Z,67.24
2016-11-13T02:30:38.727Z,67.14
2016-11-13T02:32:07.614Z,67.33
2016-11-13T02:33:21.461Z,67.24
2016-11-13T02:34:35.097Z,67.43
2016-11-13T02:35:49.474Z,67.71
2016-11-13T02:37:03.937Z,67.71
2016-11-13T02:38:18.086Z,67.43
2016-11-13T02:39:32.246Z,67.61
2016-11-13T02:40:45.916Z,67.52
2016-11-13T02:41:59.759Z,67.49
2016-11-13T02:43:13.929Z,67.86
2016-11-13T02:44:30.265Z,67.52
2016-11-13T02:45:44.051Z,67.61
2016-11-13T02:46:58.323Z,67.33
2016-11-13T02:48:12.173Z,67.52
2016-11-13T02:49:25.746Z,67.52
2016-11-13T02:50:39.739Z,68.18
2016-11-13T02:51:53.802Z,67.8
2016-11-13T02:53:08.244Z,68.15
2016-11-13T02:54:22.601Z,68.05
2016-11-13T02:55:36.879Z,68.43
2016-11-13T02:56:51.057Z,68.71
2016-11-13T02:58:05.612Z,68.33
2016-11-13T02:59:38.811Z,68.43
2016-11-13T03:01:05.235Z,69.19
2016-11-13T03:02:42.475Z,69.09
2016-11-13T03:04:05.386Z,69.38
2016-11-13T03:05:29.831Z,69.19
2016-11-13T03:06:55.168Z,69.38
2016-11-13T03:08:14.816Z,69.19
2016-11-13T03:09:36.287Z,69.76
2016-11-13T03:10:53.989Z,69.66
2016-11-13T03:12:10.709Z,69.66
2016-11-13T03:13:25.297Z,69.38
2016-11-13T03:14:39.224Z,69.57
2016-11-13T03:15:53.064Z,69.66
2016-11-13T03:17:06.876Z,69.85
2016-11-13T03:18:20.653Z,69.85
2016-11-13T03:19:34.951Z,69.85
2016-11-13T03:20:48.728Z,69.66
2016-11-13T03:22:02.660Z,69.66
2016-11-13T03:23:16.438Z,70.23
2016-11-13T03:24:30.307Z,69.95
2016-11-13T03:25:44.311Z,70.23
2016-11-13T03:26:58.345Z,69.76
2016-11-13T03:28:12.428Z,70.14
2016-11-13T03:29:29.325Z,70.04
2016-11-13T03:30:47.158Z,70.32
2016-11-13T03:32:06.222Z,70.14
2016-11-13T03:33:24.541Z,70.32
2016-11-13T03:34:53.415Z,70.42
2016-11-13T03:36:07.215Z,70.23
2016-11-13T03:37:21.063Z,70.51
2016-11-13T03:38:49.856Z,70.42
2016-11-13T03:40:03.583Z,69.95
2016-11-13T03:41:17.325Z,69.95
2016-11-13T03:42:31.841Z,70.14
2016-11-13T03:43:46.037Z,69.85
2016-11-13T03:44:59.582Z,70.23
2016-11-13T03:46:13.510Z,70.7
2016-11-13T03:47:27.486Z,70.7
2016-11-13T03:48:41.555Z,70.98
2016-11-13T03:49:55.541Z,70.7
2016-11-13T03:51:09.405Z,70.7
2016-11-13T03:52:23.541Z,70.89
2016-11-13T03:53:37.215Z,70.79
2016-11-13T03:54:51.039Z,70.42
2016-11-13T03:56:05.060Z,70.23
2016-11-13T03:57:18.934Z,70.04
2016-11-13T03:58:33.215Z,70.23
2016-11-13T03:59:47.006Z,70.04
2016-11-13T04:01:01.178Z,70.51
2016-11-13T04:02:15.873Z,70.23
2016-11-13T04:03:32.199Z,70.7
2016-11-13T04:04:46.236Z,70.79
2016-11-13T04:06:00.158Z,70.89
2016-11-13T04:07:14.534Z,70.7
2016-11-13T04:08:28.962Z,70.89
2016-11-13T04:09:43.108Z,70.89
2016-11-13T04:10:56.975Z,70.98
2016-11-13T04:12:10.830Z,71.08
2016-11-13T04:13:24.884Z,71.55
2016-11-13T04:14:39.009Z,71.55
2016-11-13T04:15:52.570Z,71.17
2016-11-13T04:17:06.849Z,71.17
2016-11-13T04:18:20.883Z,71.46
2016-11-13T04:19:35.197Z,71.08
2016-11-13T04:20:49.644Z,71.17
2016-11-13T04:22:03.907Z,71.36
2016-11-13T04:23:18.056Z,71.08
2016-11-13T04:24:32.537Z,70.51
2016-11-13T04:25:47.066Z,70.61
2016-11-13T04:27:00.736Z,70.74
2016-11-13T04:29:43.369Z,70.93
2016-11-13T04:30:57.705Z,71.21
2016-11-13T04:32:11.439Z,71.65
2016-11-13T04:33:25.014Z,71.65
2016-11-13T04:34:38.911Z,71.46
2016-11-13T04:35:52.989Z,71.65
2016-11-13T04:37:07.103Z,71.93
2016-11-13T04:38:21.104Z,71.93
2016-11-13T04:39:35.032Z,71.84
2016-11-13T04:40:48.725Z,72.12
2016-11-13T04:42:03.044Z,71.84
2016-11-13T04:43:17.011Z,72.03
2016-11-13T04:44:30.926Z,72.22
2016-11-13T04:45:44.664Z,72.69
2016-11-13T04:46:58.629Z,72.6
2016-11-13T04:48:12.531Z,72.69
2016-11-13T04:49:27.027Z,72.41
2016-11-13T04:50:40.735Z,72.5
2016-11-13T04:51:54.553Z,72.41
2016-11-13T04:53:09.790Z,72.31
2016-11-13T04:54:23.771Z,72.41
2016-11-13T04:55:38.494Z,72.5
2016-11-13T04:56:52.373Z,72.31
2016-11-13T04:58:06.106Z,72.41
2016-11-13T04:59:19.821Z,72.5
2016-11-13T05:00:33.766Z,72.69
2016-11-13T05:01:48.339Z,72.22
2016-11-13T05:03:02.365Z,72.31
2016-11-13T05:04:16.216Z,72.31
2016-11-13T05:05:29.963Z,72.5
2016-11-13T05:06:43.787Z,72.5
2016-11-13T05:07:58.274Z,72.41
2016-11-13T05:09:12.092Z,72.22
2016-11-13T05:10:25.991Z,72.41
2016-11-13T05:11:39.865Z,72.5
2016-11-13T05:12:53.833Z,72.6
2016-11-13T05:14:08.086Z,71.93
2016-11-13T05:15:22.417Z,72.12
2016-11-13T05:16:36.381Z,72.41
2016-11-13T05:17:50.248Z,72.12
2016-11-13T05:19:04.278Z,72.03
2016-11-13T05:20:20.880Z,72.03
2016-11-13T05:21:34.951Z,72.03
2016-11-13T05:22:48.557Z,71.93
2016-11-13T05:24:02.596Z,72.6
2016-11-13T05:25:17.058Z,72.6
2016-11-13T05:26:31.164Z,72.41
2016-11-13T05:27:45.344Z,72.6
2016-11-13T05:28:59.147Z,72.12
2016-11-13T05:30:12.998Z,72.25
2016-11-13T05:31:27.094Z,71.88
2016-11-13T05:32:41.136Z,71.88
2016-11-13T05:33:55.285Z,72.44
2016-11-13T05:35:09.041Z,72.31
2016-11-13T05:36:22.663Z,72.41
2016-11-13T05:37:36.556Z,72.69
2016-11-13T05:38:50.681Z,72.22
2016-11-13T05:40:04.711Z,72.53
2016-11-13T05:41:18.585Z,72.34
2016-11-13T05:42:32.312Z,72.34
2016-11-13T05:43:46.283Z,72.41
2016-11-13T05:45:00.495Z,72.53
2016-11-13T05:46:14.557Z,71.88
2016-11-13T05:47:28.506Z,71.97
2016-11-13T05:48:42.286Z,72.34
2016-11-13T05:49:56.321Z,72.25
2016-11-13T05:51:10.573Z,72.5
2016-11-13T05:53:53.954Z,72.97
2016-11-13T05:55:08.721Z,73.07
2016-11-13T05:56:22.637Z,73.07
2016-11-13T05:57:36.951Z,73.07
2016-11-13T05:58:51.274Z,73.07
2016-11-13T06:00:05.207Z,72.5
2016-11-13T06:01:18.938Z,72.69
2016-11-13T06:02:33.086Z,72.44
2016-11-13T06:03:47.298Z,72.63
2016-11-13T06:05:01.855Z,72.6
2016-11-13T06:06:15.663Z,72.73
2016-11-13T06:07:29.611Z,72.44
2016-11-13T06:08:43.590Z,72.34
2016-11-13T06:12:39.995Z,71.69
2016-11-13T06:13:53.979Z,71.78
2016-11-13T06:15:08.019Z,71.88
2016-11-13T06:16:21.803Z,71.59
2016-11-13T06:17:36.164Z,71.78
2016-11-13T06:18:49.970Z,71.78
2016-11-13T06:20:03.642Z,71.97
2016-11-13T06:21:17.381Z,71.69
2016-11-13T06:22:31.373Z,72.25
2016-11-13T06:23:45.648Z,72.06
2016-11-13T06:24:59.767Z,71.88
2016-11-13T06:26:13.961Z,72.25
2016-11-13T06:27:28.592Z,71.88
2016-11-13T06:28:42.727Z,71.88
2016-11-13T06:29:57.038Z,71.88
2016-11-13T06:31:10.766Z,71.69
2016-11-13T06:32:24.451Z,72.16
2016-11-13T06:33:38.735Z,71.78
2016-11-13T06:34:52.866Z,71.78
2016-11-13T06:36:07.080Z,71.31
2016-11-13T06:37:21.100Z,71.97
2016-11-13T06:38:37.467Z,71.59
2016-11-13T06:39:51.399Z,71.69
2016-11-13T06:41:05.382Z,71.97
2016-11-13T06:42:19.386Z,71.59
2016-11-13T06:43:33.298Z,71.78
2016-11-13T06:44:47.322Z,71.97
2016-11-13T06:46:16.258Z,77.56
2016-11-13T06:47:30.206Z,70.49
2016-11-13T06:48:44.519Z,70.01
2016-11-13T06:49:58.327Z,70.93
2016-11-13T06:51:12.332Z,71.78
2016-11-13T06:52:26.226Z,71.78
2016-11-13T06:53:40.384Z,71.97
2016-11-13T06:54:55.022Z,71.69
2016-11-13T06:56:08.980Z,71.12
2016-11-13T06:57:23.082Z,71.31
2016-11-13T06:58:37.403Z,70.93
2016-11-13T06:59:51.922Z,71.88
2016-11-13T07:01:06.380Z,71.88
2016-11-13T07:02:20.187Z,71.97
2016-11-13T07:03:34.079Z,71.97
2016-11-13T07:04:48.277Z,72.16
2016-11-13T07:06:02.203Z,72.25
2016-11-13T07:07:16.492Z,72.44
2016-11-13T07:08:30.468Z,72.06
2016-11-13T07:09:44.595Z,71.97
2016-11-13T07:10:58.748Z,72.16
2016-11-13T07:12:12.515Z,72.16
2016-11-13T07:13:29.022Z,71.69
2016-11-13T07:14:45.415Z,71.78
2016-11-13T07:15:59.359Z,71.59
2016-11-13T07:17:14.238Z,71.5
2016-11-13T07:18:28.076Z,71.21
2016-11-13T07:19:42.265Z,71.31
2016-11-13T07:20:56.276Z,70.74
2016-11-13T07:22:10.411Z,70.93
2016-11-13T07:23:25.381Z,71.02
2016-11-13T07:24:39.447Z,71.12
2016-11-13T07:25:53.836Z,71.31
2016-11-13T07:27:07.611Z,71.5
2016-11-13T07:28:21.459Z,71.21
2016-11-13T07:29:35.511Z,71.31
2016-11-13T07:30:49.048Z,71.12
2016-11-13T07:32:03.003Z,71.5
2016-11-13T07:33:16.741Z,71.59
2016-11-13T07:34:30.341Z,71.59
2016-11-13T07:35:59.373Z,71.59
2016-11-13T07:37:13.197Z,71.59
2016-11-13T07:38:27.292Z,71.5
2016-11-13T07:39:42.022Z,71.88
2016-11-13T07:40:56.347Z,71.69
2016-11-13T07:42:11.462Z,72.06
2016-11-13T07:43:25.600Z,71.78
2016-11-13T07:44:39.628Z,71.78
2016-11-13T07:45:53.233Z,71.59
2016-11-13T07:47:07.455Z,71.78
2016-11-13T07:48:36.144Z,70.45
2016-11-13T07:49:50.029Z,71.31
2016-11-13T07:51:04.046Z,71.97
2016-11-13T07:52:18.380Z,71.4
2016-11-13T07:53:32.405Z,71.02
2016-11-13T07:54:46.184Z,70.74
2016-11-13T07:56:02.804Z,70.78
2016-11-13T07:57:16.739Z,70.49
2016-11-13T07:58:31.091Z,70.01
2016-11-13T07:59:45.004Z,70.01
2016-11-13T08:00:58.829Z,70.49
2016-11-13T08:02:13.039Z,69.98
2016-11-13T08:03:27.898Z,69.98
2016-11-13T08:04:42.515Z,70.07
2016-11-13T08:05:56.555Z,70.17
2016-11-13T08:07:10.483Z,70.07
2016-11-13T08:08:24.665Z,70.49
2016-11-13T08:09:38.659Z,69.98
2016-11-13T08:10:53.259Z,69.98
2016-11-13T08:12:07.527Z,69.79
2016-11-13T08:13:21.419Z,70.07
2016-11-13T08:14:35.710Z,70.07
2016-11-13T08:15:49.959Z,70.01
2016-11-13T08:17:04.157Z,69.73
2016-11-13T08:18:18.431Z,69.54
2016-11-13T08:19:46.975Z,69.45
2016-11-13T08:21:00.972Z,69.35
2016-11-13T08:22:15.114Z,69.26
2016-11-13T08:23:29.338Z,68.79
2016-11-13T08:24:43.776Z,68.69
2016-11-13T08:25:57.797Z,68.21
2016-11-13T08:27:11.919Z,68.79
2016-11-13T08:29:29.984Z,68.02
2016-11-13T08:30:59.440Z,67.83
2016-11-13T08:32:13.329Z,67.46
2016-11-13T08:33:27.337Z,67.46
2016-11-13T08:34:41.598Z,66.8
2016-11-13T08:35:55.568Z,66.8
2016-11-13T08:37:11.102Z,66.35
2016-11-13T08:38:25.635Z,65.69
2016-11-13T08:39:39.695Z,65.69
2016-11-13T08:41:08.476Z,65.5
2016-11-13T08:42:22.556Z,66.07
2016-11-13T08:43:36.964Z,65.78
2016-11-13T08:44:51.055Z,65.03
2016-11-13T08:46:04.841Z,65.03
2016-11-13T08:47:18.352Z,64.74
2016-11-13T08:48:32.291Z,64.17
2016-11-13T08:49:46.684Z,64.55
2016-11-13T08:51:00.880Z,64.84
2016-11-13T08:52:14.610Z,64.65
2016-11-13T08:53:29.290Z,65.12
2016-11-13T08:54:44.619Z,64.93
2016-11-13T08:55:59.570Z,64.93
2016-11-13T08:57:14.407Z,65.41
2016-11-13T08:58:28.788Z,65.03
2016-11-13T08:59:42.401Z,64.84
2016-11-13T09:00:56.321Z,65.31
2016-11-13T09:02:11.430Z,65.41
2016-11-13T09:03:25.137Z,65.69
2016-11-13T09:04:39.478Z,65.66
2016-11-13T09:05:53.293Z,65.37
2016-11-13T09:07:07.180Z,65.69
2016-11-13T09:08:21.331Z,65.5
2016-11-13T09:09:35.168Z,65.59
2016-11-13T09:10:49.733Z,65.41
2016-11-13T09:12:03.787Z,65.41
2016-11-13T09:13:17.718Z,65.5
2016-11-13T09:14:33.927Z,65.59
2016-11-13T09:15:47.939Z,65.41
2016-11-13T09:17:02.110Z,64.84
2016-11-13T09:18:16.280Z,64.74
2016-11-13T09:19:30.116Z,63.89
2016-11-13T09:20:44.064Z,63.7
2016-11-13T09:21:58.208Z,63.7
2016-11-13T09:23:12.204Z,63.51
2016-11-13T09:24:26.606Z,63.42
2016-11-13T09:25:40.589Z,63.7
2016-11-13T09:26:54.659Z,63.51
2016-11-13T09:28:09.108Z,63.32
2016-11-13T09:29:23.414Z,63.42
2016-11-13T09:30:37.509Z,63.6
2016-11-13T09:31:51.832Z,63.98
2016-11-13T09:33:05.991Z,64.17
2016-11-13T09:34:19.929Z,64.27
2016-11-13T09:35:34.254Z,64.36
2016-11-13T09:36:48.258Z,63.89
2016-11-13T09:38:02.414Z,63.7
2016-11-13T09:39:16.585Z,63.79
2016-11-13T09:40:30.446Z,64.27
2016-11-13T09:41:44.224Z,65.41
2016-11-13T09:42:57.694Z,64.74
2016-11-13T09:44:11.464Z,64.65
2016-11-13T09:45:25.644Z,64.93
2016-11-13T09:46:39.514Z,64.55
2016-11-13T09:47:53.360Z,64.46
2016-11-13T09:49:06.816Z,64.74
2016-11-13T09:50:20.622Z,65.03
2016-11-13T09:51:34.768Z,65.03
2016-11-13T09:52:48.284Z,65.12
2016-11-13T09:54:02.362Z,64.08
2016-11-13T09:55:15.879Z,64.01
2016-11-13T09:56:29.788Z,63.45
2016-11-13T09:57:44.016Z,63.64
2016-11-13T09:58:57.742Z,63.54
2016-11-13T10:00:11.428Z,62.88
2016-11-13T10:01:25.400Z,63.73
2016-11-13T10:02:39.998Z,64.01
2016-11-13T10:03:55.096Z,64.27
2016-11-13T10:05:24.972Z,64.08
2016-11-13T10:06:38.961Z,64.01
2016-11-13T10:07:52.725Z,63.89
2016-11-13T10:09:07.458Z,64.27
2016-11-13T10:10:21.794Z,64.74
2016-11-13T10:11:35.864Z,64.27
2016-11-13T10:12:50.320Z,64.27
2016-11-13T10:14:04.645Z,64.27
2016-11-13T10:15:19.172Z,64.46
2016-11-13T10:16:33.515Z,63.73
2016-11-13T10:18:02.011Z,63.64
2016-11-13T10:19:16.039Z,63.17
2016-11-13T10:20:29.910Z,63.26
2016-11-13T10:21:44.044Z,63.54
2016-11-13T10:22:58.275Z,63.54
2016-11-13T10:24:12.065Z,62.88
2016-11-13T10:25:25.858Z,62.97
2016-11-13T10:26:39.935Z,63.17
2016-11-13T10:27:54.262Z,63.17
2016-11-13T10:29:08.414Z,62.59
2016-11-13T10:30:22.559Z,62.88
2016-11-13T10:31:38.876Z,62.59
2016-11-13T10:32:52.638Z,62.97
2016-11-13T10:34:07.006Z,63.26
2016-11-13T10:35:20.813Z,62.5
2016-11-13T10:36:34.766Z,62.78
2016-11-13T10:37:48.660Z,62.21
2016-11-13T10:39:02.396Z,62.21
2016-11-13T10:40:16.924Z,62.4
2016-11-13T10:41:31.241Z,62.59
2016-11-13T10:42:46.059Z,62.4
2016-11-13T10:44:00.067Z,62.31
2016-11-13T10:45:13.750Z,62.4
2016-11-13T10:46:28.080Z,62.4
2016-11-13T10:47:41.975Z,62.4
2016-11-13T10:48:56.011Z,62.24
2016-11-13T10:50:10.108Z,61.77
2016-11-13T10:51:23.804Z,61.77
2016-11-13T10:52:52.888Z,61.77
2016-11-13T10:54:07.727Z,61.58
2016-11-13T10:55:21.632Z,61.3
2016-11-13T10:56:36.169Z,61.68
2016-11-13T10:57:51.011Z,61.01
2016-11-13T10:59:06.985Z,61.01
2016-11-13T11:00:21.438Z,61.49
2016-11-13T11:01:35.683Z,61.87
2016-11-13T11:02:50.734Z,61.3
2016-11-13T11:04:06.466Z,61.77
2016-11-13T11:05:21.052Z,61.96
2016-11-13T11:06:35.195Z,61.77
2016-11-13T11:07:49.166Z,61.3
2016-11-13T11:09:03.158Z,61.2
2016-11-13T11:10:17.322Z,61.2
2016-11-13T11:11:32.139Z,61.3
2016-11-13T11:12:46.513Z,61.3
2016-11-13T11:14:00.456Z,61.2
2016-11-13T11:15:14.136Z,61.11
2016-11-13T11:16:29.520Z,61.11
2016-11-13T11:17:44.334Z,61.58
2016-11-13T11:18:58.545Z,61.39
2016-11-13T11:20:27.905Z,61.74
2016-11-13T11:21:42.083Z,61.55
2016-11-13T11:22:56.639Z,61.46
2016-11-13T11:24:10.824Z,61.36
2016-11-13T11:25:24.999Z,61.55
2016-11-13T11:26:39.139Z,61.65
2016-11-13T11:27:54.688Z,61.65
2016-11-13T11:29:09.019Z,61.3
2016-11-13T11:30:38.213Z,61.58
2016-11-13T11:31:53.332Z,61.39
2016-11-13T11:33:06.937Z,61.2
2016-11-13T11:34:36.157Z,61.58
2016-11-13T11:36:06.684Z,61.39
2016-11-13T11:37:21.046Z,60.92
2016-11-13T11:38:35.548Z,60.73
2016-11-13T11:39:50.092Z,60.35
2016-11-13T11:41:04.022Z,60.35
2016-11-13T11:42:18.290Z,60.35
2016-11-13T11:43:33.446Z,60.06
2016-11-13T11:44:49.114Z,60.06
2016-11-13T11:46:02.997Z,60.16
2016-11-13T11:47:16.793Z,60.25
2016-11-13T11:48:30.812Z,59.97
2016-11-13T11:50:02.840Z,59.59
2016-11-13T11:51:16.841Z,59.33
2016-11-13T11:52:30.838Z,58.86
2016-11-13T11:53:45.162Z,59.05
2016-11-13T11:55:13.909Z,59.14
2016-11-13T11:56:43.824Z,59.14
2016-11-13T11:57:58.435Z,59.43
2016-11-13T11:59:13.479Z,58.95
2016-11-13T12:00:29.090Z,58.95
2016-11-13T12:01:44.631Z,60.25
2016-11-13T12:02:59.286Z,60.06
2016-11-13T12:04:14.454Z,60.06
2016-11-13T12:05:29.086Z,60.25
2016-11-13T12:06:43.603Z,60.35
2016-11-13T12:07:58.491Z,60.53
2016-11-13T12:09:12.478Z,60.16
2016-11-13T12:10:26.716Z,59.97
2016-11-13T12:11:41.300Z,60.25
2016-11-13T12:12:55.800Z,60.63
2016-11-13T12:14:11.368Z,60.06
2016-11-13T12:15:25.276Z,60.16
2016-11-13T12:16:39.296Z,59.88
2016-11-13T12:17:53.677Z,60.25
2016-11-13T12:19:23.149Z,60.25
2016-11-13T12:20:52.298Z,60.25
2016-11-13T12:22:06.237Z,60.06
2016-11-13T12:23:20.335Z,60.06
2016-11-13T12:24:48.827Z,60.28
2016-11-13T12:26:02.688Z,60.19
2016-11-13T12:27:16.873Z,60.19
2016-11-13T12:28:31.060Z,59.81
2016-11-13T12:29:44.951Z,59.4
2016-11-13T12:30:58.532Z,60.35
2016-11-13T12:32:12.435Z,60.25
2016-11-13T12:33:26.437Z,60.16
2016-11-13T12:34:40.864Z,60.16
2016-11-13T12:35:55.012Z,60.16
2016-11-13T12:37:08.912Z,60.16
2016-11-13T12:38:22.915Z,60.73
2016-11-13T12:39:37.266Z,61.2
2016-11-13T12:41:20.449Z,60.82
2016-11-13T12:42:49.040Z,61.58
2016-11-13T12:44:03.681Z,61.3
2016-11-13T12:45:17.957Z,61.11
2016-11-13T12:46:32.420Z,61.2
2016-11-13T12:47:46.225Z,60.73
2016-11-13T12:49:00.187Z,60.16
2016-11-13T12:50:13.831Z,60.82
2016-11-13T12:51:28.416Z,61.11
2016-11-13T12:52:42.361Z,60.53
2016-11-13T12:53:56.206Z,60.63
2016-11-13T12:55:11.585Z,60.53
2016-11-13T12:56:25.586Z,60.44
2016-11-13T12:57:39.835Z,60.63
2016-11-13T12:59:08.860Z,60.44
2016-11-13T13:00:23.317Z,60.44
2016-11-13T13:01:37.545Z,60.82
2016-11-13T13:02:51.971Z,60.53
2016-11-13T13:04:06.157Z,60.63
2016-11-13T13:05:35.123Z,61.3
2016-11-13T13:06:49.267Z,60.63
2016-11-13T13:08:03.294Z,61.68
2016-11-13T13:09:19.644Z,60.92
2016-11-13T13:10:34.619Z,61.08
2016-11-13T13:11:48.430Z,61.58
2016-11-13T13:13:17.026Z,61.49
2016-11-13T13:14:31.803Z,61.2
2016-11-13T13:15:45.685Z,61.49
2016-11-13T13:16:59.958Z,61.3
2016-11-13T13:18:13.788Z,61.2
2016-11-13T13:19:42.241Z,61.11
2016-11-13T13:20:57.154Z,61.3
2016-11-13T13:22:12.374Z,61.3
2016-11-13T13:23:26.499Z,61.2
2016-11-13T13:24:40.194Z,61.2
2016-11-13T13:26:23.912Z,60.44
2016-11-13T13:27:37.686Z,60.16
2016-11-13T13:28:51.408Z,60.16
2016-11-13T13:30:19.880Z,59.97
2016-11-13T13:31:34.535Z,60.25
2016-11-13T13:32:48.991Z,60.57
2016-11-13T13:34:02.942Z,60.1
2016-11-13T13:35:16.764Z,60.19
2016-11-13T13:36:30.902Z,60.19
2016-11-13T13:37:45.483Z,59.81
2016-11-13T13:39:00.325Z,60.1
2016-11-13T13:40:14.515Z,59.81
2016-11-13T13:41:28.483Z,60.1
2016-11-13T13:42:42.636Z,59.88
2016-11-13T13:43:56.581Z,59.62
2016-11-13T13:45:11.094Z,59.78
2016-11-13T13:46:25.417Z,59.68
2016-11-13T13:49:08.133Z,59.49
2016-11-13T13:50:22.338Z,59.59
2016-11-13T13:51:36.779Z,59.49
2016-11-13T13:52:50.841Z,59.88
2016-11-13T13:54:04.773Z,59.59
2016-11-13T13:55:18.532Z,59.59
2016-11-13T13:56:32.676Z,59.68
2016-11-13T13:57:47.441Z,59.68
2016-11-13T13:59:01.563Z,59.21
2016-11-13T14:00:15.540Z,58.64
2016-11-13T14:01:29.844Z,58.83
2016-11-13T14:02:44.264Z,59.3
2016-11-13T14:03:58.148Z,59.3
2016-11-13T14:05:15.283Z,58.73
2016-11-13T14:06:29.197Z,59.21
2016-11-13T14:07:42.996Z,59.11
2016-11-13T14:08:57.254Z,59.21
2016-11-13T14:10:12.556Z,58.83
2016-11-13T14:11:29.141Z,58.73
2016-11-13T14:12:44.760Z,59.05
2016-11-13T14:14:01.605Z,58.92
2016-11-13T14:15:20.281Z,58.58
2016-11-13T14:16:52.669Z,58.73
2016-11-13T14:18:06.557Z,58.36
2016-11-13T14:19:20.889Z,58.64
2016-11-13T14:20:35.809Z,59.02
2016-11-13T14:21:50.969Z,59.3
2016-11-13T14:23:06.231Z,59.59
2016-11-13T14:24:20.282Z,59.59
2016-11-13T14:25:34.924Z,59.68
2016-11-13T14:26:49.486Z,59.68
2016-11-13T14:28:05.523Z,59.59
2016-11-13T14:29:34.418Z,59.78
2016-11-13T14:30:48.394Z,59.49
2016-11-13T14:32:02.470Z,58.92
2016-11-13T14:33:16.776Z,59.11
2016-11-13T14:34:30.961Z,59.11
2016-11-13T14:35:44.551Z,58.83
2016-11-13T14:36:58.577Z,59.02
2016-11-13T14:38:12.550Z,58.92
2016-11-13T14:39:27.170Z,59.59
2016-11-13T14:40:41.468Z,59.21
2016-11-13T14:41:59.966Z,59.4
2016-11-13T14:43:20.065Z,59.3
2016-11-13T14:44:34.292Z,59.59
2016-11-13T14:46:03.372Z,59.59
2016-11-13T14:47:17.418Z,59.59
2016-11-13T14:48:46.919Z,59.3
2016-11-13T14:50:01.101Z,59.49
2016-11-13T14:51:15.633Z,59.68
2016-11-13T14:52:30.776Z,59.68
2016-11-13T14:53:45.008Z,59.4
2016-11-13T14:54:58.904Z,59.88
2016-11-13T14:56:12.923Z,59.59
2016-11-13T14:57:27.214Z,59.56
2016-11-13T14:58:41.565Z,59.68
2016-11-13T15:00:13.066Z,59.75
2016-11-13T15:01:27.705Z,59.68
2016-11-13T15:02:42.704Z,60.35
2016-11-13T15:03:57.125Z,60.13
2016-11-13T15:05:10.767Z,60.35
2016-11-13T15:06:24.442Z,59.94
2016-11-13T15:07:39.243Z,59.97
2016-11-13T15:08:55.137Z,59.97
2016-11-13T15:10:09.236Z,60.22
2016-11-13T15:11:23.078Z,59.68
2016-11-13T15:12:37.277Z,60.06
2016-11-13T15:13:52.682Z,59.94
2016-11-13T15:15:06.993Z,60.13
2016-11-13T15:16:21.463Z,59.94
2016-11-13T15:17:39.162Z,59.75
2016-11-13T15:18:55.126Z,60.31
2016-11-13T15:20:12.221Z,59.75
2016-11-13T15:21:26.119Z,60.03
2016-11-13T15:22:39.900Z,60.03
2016-11-13T15:23:54.209Z,60.13
2016-11-13T15:25:07.941Z,60.22
2016-11-13T15:26:22.027Z,60.22
2016-11-13T15:27:36.776Z,60.31
2016-11-13T15:28:51.441Z,60.79
2016-11-13T15:30:05.002Z,60.6
2016-11-13T15:31:18.690Z,60.41
2016-11-13T15:32:32.604Z,61.08
2016-11-13T15:33:46.353Z,60.89
2016-11-13T15:35:00.643Z,60.6
2016-11-13T15:36:14.706Z,60.31
2016-11-13T15:37:28.376Z,60.7
2016-11-13T15:38:42.291Z,60.41
2016-11-13T15:41:26.725Z,60.5
2016-11-13T15:42:40.726Z,60.98
2016-11-13T15:43:55.961Z,61.08
2016-11-13T15:45:10.440Z,60.79
2016-11-13T15:46:29.225Z,61.08
2016-11-13T15:47:44.419Z,61.27
2016-11-13T19:28:38.133Z,65.88
2016-11-13T19:30:09.463Z,62.08
2016-11-13T19:31:52.986Z,62.47
2016-11-13T19:33:07.074Z,62.28
2016-11-13T19:34:22.102Z,62.34
2016-11-13T19:35:50.863Z,63.01
2016-11-13T19:37:04.849Z,63.2
2016-11-13T19:38:18.881Z,63.39
2016-11-13T19:39:32.929Z,63.57
2016-11-13T19:40:47.023Z,63.95
2016-11-13T19:42:00.798Z,63.95
2016-11-13T19:43:15.037Z,63.95
2016-11-13T19:44:28.894Z,64.04
2016-11-13T19:45:43.527Z,64.42
2016-11-13T19:46:57.617Z,63.67
2016-11-13T19:48:11.550Z,63.85
2016-11-13T19:49:27.448Z,63.85
2016-11-13T19:50:41.225Z,63.95
2016-11-13T19:51:55.454Z,64.04
2016-11-13T19:53:23.995Z,63.85
2016-11-13T19:54:37.802Z,64.04
2016-11-13T19:55:51.665Z,64.3
2016-11-13T19:57:05.896Z,64.52
2016-11-13T19:58:19.530Z,64.61
2016-11-13T19:59:33.596Z,64.68
2016-11-13T20:00:47.409Z,65.06
2016-11-13T20:02:02.119Z,65.15
2016-11-13T20:03:16.767Z,64.96
2016-11-13T20:04:31.093Z,64.68
2016-11-13T20:05:47.067Z,65.34